createdAt,value
2018-12-29T11:16:22.135Z,26.80
2018-12-29T11:19:01.323Z,28.17
2018-12-29T11:21:30.162Z,29.50
2018-12-29T11:23:59.046Z,29.37
2018-12-29T11:26:27.803Z,28.23
2018-12-29T11:28:56.488Z,28.37
2018-12-29T11:31:25.101Z,30.00
2018-12-29T11:33:53.753Z,28.67
2018-12-29T11:36:22.483Z,27.67
2018-12-29T11:38:51.128Z,28.10
2018-12-29T11:41:19.771Z,26.97
2018-12-29T11:43:48.452Z,27.53
2018-12-29T11:49:19.721Z,29.93
2018-12-29T11:51:48.367Z,30.03
2018-12-29T11:54:17.055Z,29.97
2018-12-29T11:56:45.692Z,28.20
2018-12-29T11:59:14.327Z,29.60
2018-12-29T12:01:42.968Z,28.87
2018-12-29T12:04:11.548Z,27.63
2018-12-29T12:06:40.228Z,28.23
2018-12-29T12:12:13.278Z,28.57
2018-12-29T12:14:42.042Z,26.87
2018-12-29T12:26:02.224Z,27.53
2018-12-29T12:28:30.920Z,28.33
2018-12-29T12:30:59.558Z,27.93
2018-12-29T12:33:30.920Z,30.87
2018-12-29T12:35:59.875Z,28.80
2018-12-29T12:38:28.646Z,31.50
2018-12-29T12:44:30.594Z,28.73
2018-12-29T12:46:59.309Z,26.57
2018-12-29T12:49:28.045Z,29.13
2018-12-29T12:51:56.798Z,30.00
2018-12-29T12:54:26.188Z,31.13
2018-12-29T12:56:54.853Z,31.33
2018-12-29T12:59:23.612Z,31.27
2018-12-29T13:01:52.462Z,32.23
2018-12-29T13:04:21.182Z,28.40
2018-12-29T13:21:15.837Z,27.53
2018-12-29T13:23:48.540Z,30.50
2018-12-29T13:26:22.431Z,28.80
2018-12-29T13:29:10.098Z,29.97
2018-12-29T13:31:38.859Z,29.97
2018-12-29T13:34:07.772Z,27.30
2018-12-29T13:39:32.835Z,30.13
2018-12-29T13:42:11.011Z,28.77
2018-12-29T13:44:39.643Z,28.03
2018-12-29T13:47:08.488Z,28.03
2018-12-29T13:49:38.377Z,30.30
2018-12-29T14:04:16.682Z,34.00
2018-12-29T14:06:52.242Z,33.27
2018-12-29T14:09:21.157Z,33.90
2018-12-29T14:11:49.862Z,35.83
2018-12-29T14:14:20.369Z,35.93
2018-12-29T14:16:49.188Z,36.50
2018-12-29T14:22:21.691Z,34.27
2018-12-29T14:24:50.400Z,35.67
2018-12-29T14:27:19.893Z,38.43
2018-12-29T14:29:48.953Z,39.13
2018-12-29T14:32:17.691Z,39.53
2018-12-29T14:34:54.072Z,38.03
2018-12-29T14:37:22.788Z,33.57
2018-12-29T14:39:54.743Z,37.60
2018-12-29T14:45:45.570Z,35.87
2018-12-29T14:48:14.310Z,34.67
2018-12-29T14:50:43.007Z,34.90
2018-12-29T14:53:12.423Z,37.10
2018-12-29T15:22:09.586Z,32.17
2018-12-29T15:24:38.519Z,34.03
2018-12-29T15:27:07.214Z,31.50
2018-12-29T15:29:38.339Z,31.80
2018-12-29T15:32:07.803Z,32.37
2018-12-29T15:37:54.219Z,34.43
2018-12-29T15:40:42.131Z,30.20
2018-12-29T15:43:27.872Z,28.87
2018-12-29T15:46:22.434Z,31.60
2018-12-29T15:48:52.056Z,28.80
2018-12-29T16:49:12.228Z,29.57
2018-12-29T16:51:41.671Z,28.07
2018-12-29T16:54:10.312Z,28.83
2018-12-29T16:56:39.294Z,29.07
2018-12-29T16:59:07.967Z,30.30
2018-12-29T17:01:36.743Z,28.93
2018-12-29T17:04:06.071Z,27.13
2018-12-29T17:09:17.444Z,28.70
2018-12-29T17:11:52.250Z,27.13
2018-12-29T17:14:16.619Z,25.93
2018-12-29T17:16:45.714Z,27.37
2018-12-29T17:19:14.848Z,27.57
2018-12-29T17:21:43.893Z,27.03
2018-12-29T17:29:31.565Z,28.73
2018-12-29T17:32:30.577Z,27.63
2018-12-29T17:34:59.750Z,26.77
2018-12-29T17:49:59.542Z,26.57
2018-12-29T18:06:44.477Z,24.87
2018-12-29T18:09:19.464Z,26.07
2018-12-29T18:11:53.002Z,25.93
2018-12-29T18:17:42.946Z,26.83
2018-12-29T19:43:37.612Z,23.53
2018-12-29T19:46:06.511Z,23.17
2018-12-29T19:48:35.156Z,22.63
2018-12-29T19:51:04.202Z,22.13
2018-12-29T19:53:33.239Z,21.83
2018-12-29T20:02:17.919Z,22.50
2018-12-29T20:04:46.989Z,21.30
2018-12-29T20:07:17.232Z,21.97
2018-12-29T20:09:46.021Z,21.87
2018-12-29T20:12:14.639Z,22.53
2018-12-29T20:14:45.158Z,22.07
2018-12-29T20:17:15.477Z,22.37
2018-12-29T20:19:44.099Z,26.63
2018-12-29T20:22:12.695Z,23.30
2018-12-29T20:24:41.458Z,24.80
2018-12-29T20:27:10.063Z,24.63
2018-12-29T20:30:02.526Z,23.00
2018-12-29T20:32:28.502Z,24.83
2018-12-29T20:40:50.106Z,22.03
2018-12-29T21:21:33.559Z,22.07
2018-12-29T22:03:01.179Z,22.60
2018-12-29T22:05:30.484Z,21.33
2018-12-29T22:23:13.618Z,25.20
2018-12-29T22:35:26.205Z,25.63
2018-12-29T22:53:29.584Z,25.53
2018-12-29T23:09:52.684Z,27.37
2018-12-29T23:36:04.556Z,31.13
2018-12-29T23:38:33.136Z,32.17
2018-12-29T23:41:02.121Z,31.90
2018-12-29T23:47:03.393Z,32.03
2018-12-29T23:49:32.372Z,33.33
2018-12-29T23:55:52.774Z,34.70
2018-12-29T23:58:22.987Z,29.80
